createdAt,value
2023-02-09T00:01:53.338Z,21.20
2023-02-09T00:03:54.736Z,21.16
2023-02-09T00:05:56.111Z,21.16
2023-02-09T00:07:57.422Z,21.13
2023-02-09T00:09:58.749Z,21.08
2023-02-09T00:12:18.892Z,21.06
2023-02-09T00:14:21.934Z,21.02
2023-02-09T00:16:23.619Z,20.98
2023-02-09T00:18:25.010Z,20.94
2023-02-09T00:20:26.332Z,20.95
2023-02-09T00:22:28.557Z,21.03
2023-02-09T00:24:29.931Z,21.04
2023-02-09T00:26:31.246Z,21.02
2023-02-09T00:28:32.591Z,21.00
2023-02-09T00:30:34.025Z,21.00
2023-02-09T00:32:35.449Z,21.02
2023-02-09T00:34:36.736Z,21.05
2023-02-09T00:36:38.027Z,21.11
2023-02-09T00:38:39.333Z,21.25
2023-02-09T00:40:40.628Z,21.15
2023-02-09T00:42:41.966Z,21.16
2023-02-09T00:44:43.331Z,21.22
2023-02-09T00:46:44.626Z,21.28
2023-02-09T00:48:45.922Z,21.36
2023-02-09T00:50:47.357Z,21.42
2023-02-09T00:52:48.771Z,21.44
2023-02-09T00:54:50.097Z,21.47
2023-02-09T00:56:51.641Z,21.48
2023-02-09T00:58:52.929Z,21.53
2023-02-09T01:00:54.299Z,21.48
2023-02-09T01:02:55.664Z,21.43
2023-02-09T01:04:57.049Z,21.40
2023-02-09T01:06:58.390Z,21.36
2023-02-09T01:08:59.690Z,21.35
2023-02-09T01:11:00.993Z,21.32
2023-02-09T01:13:02.288Z,21.31
2023-02-09T01:15:03.611Z,21.37
2023-02-09T01:17:05.047Z,21.32
2023-02-09T01:19:06.394Z,21.30
2023-02-09T01:21:07.695Z,21.22
2023-02-09T01:23:09.032Z,21.20
2023-02-09T01:25:10.319Z,21.17
2023-02-09T01:27:11.615Z,21.15
2023-02-09T01:29:12.978Z,21.10
2023-02-09T01:31:14.406Z,21.07
2023-02-09T01:33:15.801Z,21.04
2023-02-09T01:35:17.108Z,21.03
2023-02-09T01:37:18.402Z,20.99
2023-02-09T01:39:19.716Z,20.96
2023-02-09T01:41:21.015Z,20.93
2023-02-09T01:43:22.326Z,20.92
2023-02-09T01:45:23.662Z,20.91
2023-02-09T01:47:24.955Z,20.90
2023-02-09T01:49:29.067Z,20.93
2023-02-09T01:51:30.397Z,20.96
2023-02-09T01:53:31.709Z,20.99
2023-02-09T01:55:33.051Z,21.03
2023-02-09T01:57:34.415Z,21.09
2023-02-09T01:59:35.761Z,21.14
2023-02-09T02:01:37.147Z,21.17
2023-02-09T02:03:38.441Z,21.24
2023-02-09T02:05:39.788Z,21.34
2023-02-09T02:07:41.091Z,21.38
2023-02-09T02:09:43.283Z,21.44
2023-02-09T02:11:44.629Z,21.47
2023-02-09T02:13:46.044Z,21.60
2023-02-09T02:15:47.348Z,21.60
2023-02-09T02:17:48.706Z,21.60
2023-02-09T02:19:50.039Z,21.60
2023-02-09T02:21:51.375Z,21.54
2023-02-09T02:23:52.677Z,21.49
2023-02-09T02:25:53.978Z,21.46
2023-02-09T02:27:55.325Z,21.42
2023-02-09T02:29:56.735Z,21.37
2023-02-09T02:31:58.158Z,21.34
2023-02-09T02:33:59.599Z,21.29
2023-02-09T02:36:00.913Z,21.25
2023-02-09T02:38:02.505Z,21.20
2023-02-09T02:40:03.810Z,21.17
2023-02-09T02:42:23.932Z,21.15
2023-02-09T02:44:25.224Z,21.13
2023-02-09T02:46:26.582Z,21.15
2023-02-09T02:48:28.028Z,21.16
2023-02-09T02:50:29.409Z,21.13
2023-02-09T02:52:30.741Z,21.11
2023-02-09T02:54:32.015Z,21.08
2023-02-09T02:56:33.350Z,21.06
2023-02-09T02:58:34.643Z,21.05
2023-02-09T03:00:35.977Z,21.04
2023-02-09T03:02:37.286Z,21.09
2023-02-09T03:04:38.588Z,21.08
2023-02-09T03:06:39.933Z,21.06
2023-02-09T03:08:41.234Z,21.05
2023-02-09T03:10:42.767Z,21.05
2023-02-09T03:12:44.157Z,21.06
2023-02-09T03:14:45.483Z,21.10
2023-02-09T03:16:46.974Z,21.19
2023-02-09T03:18:48.304Z,21.32
2023-02-09T03:20:49.669Z,21.40
2023-02-09T03:22:51.000Z,21.47
2023-02-09T03:24:52.293Z,21.51
2023-02-09T03:26:53.631Z,21.54
2023-02-09T03:28:54.988Z,21.58
2023-02-09T03:30:56.488Z,21.59
2023-02-09T03:32:57.913Z,21.65
2023-02-09T03:34:59.248Z,21.63
2023-02-09T03:37:00.564Z,21.66
2023-02-09T03:39:02.210Z,21.64
2023-02-09T03:41:03.530Z,21.63
2023-02-09T03:43:04.831Z,21.59
2023-02-09T03:45:08.024Z,21.41
2023-02-09T03:47:09.378Z,21.25
2023-02-09T03:49:10.672Z,21.12
2023-02-09T03:51:13.025Z,21.05
2023-02-09T03:53:14.324Z,20.95
2023-02-09T03:55:15.624Z,21.12
2023-02-09T03:57:16.962Z,21.31
2023-02-09T03:59:18.256Z,20.96
2023-02-09T04:01:19.584Z,20.78
2023-02-09T04:03:20.963Z,20.51
2023-02-09T04:05:23.064Z,20.23
2023-02-09T04:07:24.604Z,20.08
2023-02-09T04:09:25.933Z,20.21
2023-02-09T04:11:27.239Z,20.33
2023-02-09T04:13:28.628Z,20.38
2023-02-09T04:15:29.928Z,20.41
2023-02-09T04:17:31.264Z,20.43
2023-02-09T04:19:32.624Z,20.45
2023-02-09T04:21:34.044Z,20.49
2023-02-09T04:23:35.374Z,20.57
2023-02-09T04:25:36.731Z,20.66
2023-02-09T04:27:38.076Z,20.75
2023-02-09T04:29:39.382Z,20.86
2023-02-09T04:31:40.786Z,20.96
2023-02-09T04:33:42.143Z,21.02
2023-02-09T04:35:45.538Z,21.04
2023-02-09T04:37:46.843Z,21.11
2023-02-09T04:39:48.172Z,21.12
2023-02-09T04:41:49.473Z,21.18
2023-02-09T04:43:50.788Z,21.19
2023-02-09T04:45:52.444Z,21.22
2023-02-09T04:47:53.763Z,21.24
2023-02-09T04:49:55.093Z,21.25
2023-02-09T04:51:56.392Z,21.27
2023-02-09T04:53:57.693Z,21.26
2023-02-09T04:55:58.986Z,21.26
2023-02-09T04:58:19.040Z,21.29
2023-02-09T05:00:20.366Z,21.27
2023-02-09T05:02:21.747Z,21.25
2023-02-09T05:04:23.098Z,21.16
2023-02-09T05:06:24.537Z,21.07
2023-02-09T05:08:25.833Z,20.95
2023-02-09T05:10:27.139Z,20.83
2023-02-09T05:12:28.467Z,20.73
2023-02-09T05:14:29.756Z,20.64
2023-02-09T05:16:31.121Z,20.55
2023-02-09T05:18:32.570Z,20.48
2023-02-09T05:20:33.914Z,20.42
2023-02-09T05:22:35.240Z,20.39
2023-02-09T05:24:36.568Z,20.34
2023-02-09T05:26:37.861Z,20.29
2023-02-09T05:28:39.160Z,20.26
2023-02-09T05:30:40.598Z,20.24
2023-02-09T05:32:41.948Z,20.22
2023-02-09T05:34:43.249Z,20.23
2023-02-09T05:36:44.576Z,20.21
2023-02-09T05:38:46.166Z,20.22
2023-02-09T05:40:47.787Z,20.24
2023-02-09T05:42:49.251Z,20.28
2023-02-09T05:44:50.713Z,20.36
2023-02-09T05:46:52.021Z,20.44
2023-02-09T05:48:53.359Z,20.53
2023-02-09T05:50:54.652Z,20.67
2023-02-09T05:52:56.545Z,20.76
2023-02-09T05:54:57.857Z,20.86
2023-02-09T05:56:59.139Z,20.93
2023-02-09T05:59:00.745Z,20.98
2023-02-09T06:01:03.479Z,20.99
2023-02-09T06:03:04.834Z,21.02
2023-02-09T06:05:06.271Z,21.06
2023-02-09T06:07:07.580Z,21.11
2023-02-09T06:09:08.953Z,21.10
2023-02-09T06:11:10.244Z,21.13
2023-02-09T06:13:11.594Z,21.13
2023-02-09T06:15:13.005Z,21.14
2023-02-09T06:17:14.307Z,21.13
2023-02-09T06:19:15.653Z,21.14
2023-02-09T06:21:17.201Z,21.15
2023-02-09T06:23:18.497Z,21.17
2023-02-09T06:25:19.803Z,21.14
2023-02-09T06:27:21.111Z,21.11
2023-02-09T06:29:22.421Z,21.04
2023-02-09T06:31:23.867Z,20.98
2023-02-09T06:33:25.211Z,20.93
2023-02-09T06:35:26.507Z,20.87
2023-02-09T06:37:27.820Z,20.82
2023-02-09T06:39:29.958Z,20.79
2023-02-09T06:41:31.271Z,20.77
2023-02-09T06:43:32.563Z,20.72
2023-02-09T06:45:33.873Z,20.67
2023-02-09T06:47:35.176Z,20.63
2023-02-09T06:49:36.631Z,20.57
2023-02-09T06:51:38.407Z,20.56
2023-02-09T06:53:39.759Z,20.51
2023-02-09T06:55:41.079Z,20.48
2023-02-09T06:57:42.435Z,20.45
2023-02-09T06:59:43.726Z,20.43
2023-02-09T07:01:45.098Z,20.42
2023-02-09T07:03:46.403Z,20.40
2023-02-09T07:05:47.727Z,20.38
2023-02-09T07:07:49.020Z,20.38
2023-02-09T07:09:50.319Z,20.41
2023-02-09T07:11:51.682Z,20.45
2023-02-09T07:13:53.024Z,20.47
2023-02-09T07:15:54.398Z,20.50
2023-02-09T07:17:55.772Z,20.58
2023-02-09T07:19:57.053Z,20.69
2023-02-09T07:21:58.378Z,20.76
2023-02-09T07:23:59.696Z,20.83
2023-02-09T07:26:00.987Z,20.90
2023-02-09T07:28:02.344Z,20.87
2023-02-09T07:30:03.724Z,20.73
2023-02-09T07:32:05.041Z,20.82
2023-02-09T07:34:06.579Z,20.90
2023-02-09T07:36:07.870Z,21.00
2023-02-09T07:38:09.375Z,21.06
2023-02-09T07:40:10.992Z,21.06
2023-02-09T07:42:12.291Z,21.04
2023-02-09T07:44:13.628Z,21.04
2023-02-09T07:46:15.003Z,21.02
2023-02-09T07:48:16.589Z,21.04
2023-02-09T07:50:20.054Z,21.00
2023-02-09T07:52:21.460Z,21.01
2023-02-09T07:54:22.828Z,21.00
2023-02-09T07:56:24.122Z,21.00
2023-02-09T07:58:25.432Z,20.98
2023-02-09T08:00:26.855Z,20.91
2023-02-09T08:02:28.252Z,20.85
2023-02-09T08:04:29.560Z,20.83
2023-02-09T08:06:41.571Z,20.78
2023-02-09T08:08:43.997Z,20.73
2023-02-09T08:10:45.362Z,20.70
2023-02-09T08:13:02.594Z,20.67
2023-02-09T08:15:03.924Z,20.65
2023-02-09T08:17:20.727Z,20.62
2023-02-09T08:19:22.119Z,20.57
2023-02-09T08:21:23.413Z,20.53
2023-02-09T08:23:24.785Z,20.50
2023-02-09T08:25:26.128Z,20.50
2023-02-09T08:27:27.582Z,20.48
2023-02-09T08:29:28.895Z,20.46
2023-02-09T08:31:30.383Z,20.44
2023-02-09T08:33:31.869Z,20.45
2023-02-09T08:35:33.251Z,20.46
2023-02-09T08:37:34.580Z,20.50
2023-02-09T08:39:35.872Z,20.55
2023-02-09T08:41:37.931Z,20.62
2023-02-09T08:43:39.287Z,20.67
2023-02-09T08:45:41.019Z,20.77
2023-02-09T08:47:42.376Z,20.87
2023-02-09T08:49:43.702Z,20.91
2023-02-09T08:51:45.022Z,20.99
2023-02-09T08:53:52.259Z,21.05
2023-02-09T08:55:54.038Z,21.07
2023-02-09T08:57:55.351Z,21.10
2023-02-09T08:59:56.647Z,21.15
2023-02-09T09:01:57.948Z,21.20
2023-02-09T09:03:59.311Z,21.23
2023-02-09T09:06:00.724Z,21.27
2023-02-09T09:08:02.059Z,21.28
2023-02-09T09:10:03.459Z,21.30
2023-02-09T09:12:04.788Z,21.33
2023-02-09T09:14:06.078Z,21.31
2023-02-09T09:16:07.524Z,21.28
2023-02-09T09:18:08.932Z,21.27
2023-02-09T09:20:10.242Z,21.28
2023-02-09T09:22:11.599Z,21.28
2023-02-09T09:24:12.898Z,21.24
2023-02-09T09:26:14.207Z,21.24
2023-02-09T09:28:15.934Z,21.24
2023-02-09T09:30:17.331Z,21.24
2023-02-09T09:32:24.583Z,21.21
2023-02-09T09:34:26.019Z,21.20
2023-02-09T09:36:27.315Z,21.16
2023-02-09T09:38:28.618Z,21.14
2023-02-09T09:40:29.917Z,21.11
2023-02-09T09:42:31.220Z,21.09
2023-02-09T09:44:32.558Z,21.07
2023-02-09T09:46:33.943Z,21.05
2023-02-09T09:48:35.283Z,21.04
2023-02-09T09:50:36.603Z,21.04
2023-02-09T09:52:37.932Z,21.04
2023-02-09T09:54:39.282Z,21.04
2023-02-09T09:56:41.476Z,21.07
2023-02-09T09:58:42.864Z,21.08
2023-02-09T10:00:44.365Z,21.11
2023-02-09T10:02:45.756Z,21.14
2023-02-09T10:04:47.120Z,21.20
2023-02-09T10:06:48.472Z,21.23
2023-02-09T10:08:49.845Z,21.29
2023-02-09T10:10:51.158Z,21.38
2023-02-09T10:12:52.667Z,21.44
2023-02-09T10:14:53.968Z,21.46
2023-02-09T10:16:55.351Z,21.50
2023-02-09T10:18:56.729Z,21.55
2023-02-09T10:20:58.046Z,21.59
2023-02-09T10:22:59.657Z,21.62
2023-02-09T10:25:00.950Z,21.64
2023-02-09T10:27:02.401Z,21.64
2023-02-09T10:29:03.847Z,21.65
2023-02-09T10:31:05.246Z,21.65
2023-02-09T10:33:06.580Z,21.65
2023-02-09T10:35:07.883Z,21.59
2023-02-09T10:37:09.187Z,21.60
2023-02-09T10:39:10.493Z,21.60
2023-02-09T10:41:11.813Z,21.58
2023-02-09T10:43:13.108Z,21.58
2023-02-09T10:45:14.570Z,21.54
2023-02-09T10:47:15.864Z,21.50
2023-02-09T10:49:17.181Z,21.49
2023-02-09T10:51:18.485Z,21.46
2023-02-09T10:53:20.293Z,21.43
2023-02-09T10:55:21.863Z,21.39
2023-02-09T10:57:23.151Z,21.37
2023-02-09T10:59:24.526Z,21.35
2023-02-09T11:01:26.126Z,21.34
2023-02-09T11:03:27.542Z,21.32
2023-02-09T11:05:28.909Z,21.31
2023-02-09T11:07:31.879Z,21.29
2023-02-09T11:09:33.345Z,21.29
2023-02-09T11:11:35.260Z,21.26
2023-02-09T11:13:36.632Z,21.27
2023-02-09T11:15:37.961Z,21.28
2023-02-09T11:17:40.095Z,21.30
2023-02-09T11:19:41.401Z,21.34
2023-02-09T11:21:42.801Z,21.37
2023-02-09T11:23:44.526Z,21.41
2023-02-09T11:25:46.625Z,21.50
2023-02-09T11:27:48.049Z,21.54
2023-02-09T11:29:49.349Z,21.60
2023-02-09T11:31:50.735Z,21.63
2023-02-09T11:33:52.061Z,21.69
2023-02-09T11:35:54.744Z,21.69
2023-02-09T11:37:56.036Z,21.72
2023-02-09T11:39:57.378Z,21.79
2023-02-09T11:42:17.810Z,21.80
2023-02-09T11:44:21.872Z,21.78
2023-02-09T11:46:23.265Z,21.80
2023-02-09T11:48:25.081Z,21.84
2023-02-09T11:50:26.507Z,21.82
2023-02-09T11:52:27.820Z,21.84
2023-02-09T11:54:29.124Z,21.83
2023-02-09T11:56:30.575Z,21.77
2023-02-09T11:58:31.878Z,21.70
2023-02-09T12:00:33.974Z,21.63
2023-02-09T12:02:37.967Z,21.60
2023-02-09T12:04:39.293Z,21.53
2023-02-09T12:06:40.665Z,21.47
2023-02-09T12:08:48.194Z,21.43
2023-02-09T12:10:49.567Z,21.37
2023-02-09T12:12:50.909Z,21.32
2023-02-09T12:14:52.254Z,21.28
2023-02-09T12:16:53.599Z,21.20
2023-02-09T12:18:55.119Z,21.16
2023-02-09T12:20:56.536Z,21.12
2023-02-09T12:22:57.899Z,21.08
2023-02-09T12:24:59.228Z,21.03
2023-02-09T12:27:00.773Z,20.98
2023-02-09T12:29:03.743Z,20.96
2023-02-09T12:31:05.261Z,20.95
2023-02-09T12:33:06.590Z,20.94
2023-02-09T12:35:07.884Z,20.93
2023-02-09T12:37:09.186Z,20.93
2023-02-09T12:39:10.504Z,20.94
2023-02-09T12:41:14.793Z,20.98
2023-02-09T12:43:16.128Z,21.03
2023-02-09T12:45:17.441Z,21.09
2023-02-09T12:47:18.772Z,21.14
2023-02-09T12:49:20.893Z,21.18
2023-02-09T12:51:22.262Z,21.22
2023-02-09T12:53:23.943Z,21.29
2023-02-09T12:55:25.320Z,21.36
2023-02-09T12:57:26.731Z,21.44
2023-02-09T12:59:28.072Z,21.49
2023-02-09T13:01:29.499Z,21.51
2023-02-09T13:03:30.905Z,21.50
2023-02-09T13:05:33.736Z,21.50
2023-02-09T13:07:35.049Z,21.48
2023-02-09T13:09:36.402Z,21.47
2023-02-09T13:11:37.929Z,21.45
2023-02-09T13:13:39.250Z,21.43
2023-02-09T13:15:40.553Z,21.40
2023-02-09T13:17:41.878Z,21.37
2023-02-09T13:19:47.930Z,21.33
2023-02-09T13:21:49.559Z,21.28
2023-02-09T13:23:51.180Z,21.08
2023-02-09T13:25:52.527Z,18.17
2023-02-09T13:27:53.885Z,19.85
2023-02-09T13:29:55.225Z,20.89
2023-02-09T13:31:56.542Z,21.59
2023-02-09T13:33:57.879Z,21.75
2023-02-09T13:35:59.188Z,21.51
2023-02-09T13:38:00.626Z,21.45
2023-02-09T13:40:02.016Z,21.41
2023-02-09T13:42:03.402Z,21.42
2023-02-09T13:44:04.721Z,21.47
2023-02-09T13:46:06.285Z,22.02
2023-02-09T13:48:09.806Z,22.06
2023-02-09T13:50:11.860Z,22.31
2023-02-09T13:52:13.223Z,22.47
2023-02-09T13:54:14.660Z,22.17
2023-02-09T13:56:15.984Z,22.13
2023-02-09T13:58:17.317Z,22.56
2023-02-09T14:00:18.632Z,22.62
2023-02-09T14:02:20.090Z,22.33
2023-02-09T14:04:21.433Z,22.53
2023-02-09T14:06:22.730Z,22.38
2023-02-09T14:08:24.052Z,22.55
2023-02-09T14:10:25.355Z,22.52
2023-02-09T14:12:46.603Z,22.30
2023-02-09T14:15:06.438Z,22.09
2023-02-09T14:17:17.826Z,22.25
2023-02-09T14:19:25.493Z,22.40
2023-02-09T14:21:26.936Z,22.06
2023-02-09T14:23:32.920Z,21.80
2023-02-09T14:25:34.260Z,21.72
2023-02-09T14:27:36.207Z,21.68
2023-02-09T14:29:40.717Z,21.64
2023-02-09T14:31:42.026Z,21.64
2023-02-09T14:33:43.313Z,21.60
2023-02-09T14:35:45.560Z,21.57
2023-02-09T14:37:46.979Z,21.49
2023-02-09T14:39:54.353Z,21.46
2023-02-09T14:41:56.057Z,21.42
2023-02-09T14:43:57.373Z,21.38
2023-02-09T14:45:58.721Z,21.32
2023-02-09T14:48:00.092Z,21.29
2023-02-09T14:50:02.199Z,21.32
2023-02-09T14:52:03.573Z,21.33
2023-02-09T14:54:04.877Z,21.29
2023-02-09T14:56:06.185Z,21.25
2023-02-09T14:58:07.485Z,21.26
2023-02-09T15:00:08.820Z,21.27
2023-02-09T15:02:10.118Z,21.25
2023-02-09T15:04:11.451Z,21.25
2023-02-09T15:06:12.769Z,21.29
2023-02-09T15:08:14.066Z,21.35
2023-02-09T15:10:15.489Z,21.38
2023-02-09T15:12:16.806Z,21.36
2023-02-09T15:14:18.159Z,21.35
2023-02-09T15:16:19.491Z,21.34
2023-02-09T15:18:20.864Z,21.33
2023-02-09T15:20:25.409Z,21.38
2023-02-09T15:22:26.747Z,21.37
2023-02-09T15:24:28.039Z,21.39
2023-02-09T15:26:29.370Z,21.42
2023-02-09T15:28:32.472Z,21.42
2023-02-09T15:30:33.827Z,21.42
2023-02-09T15:32:35.165Z,21.43
2023-02-09T15:34:36.795Z,21.45
2023-02-09T15:36:38.092Z,21.43
2023-02-09T15:38:39.384Z,21.42
2023-02-09T15:40:59.563Z,21.64
2023-02-09T15:43:19.473Z,22.14
2023-02-09T15:45:40.710Z,22.46
2023-02-09T15:47:53.555Z,22.61
2023-02-09T15:49:54.879Z,22.56
2023-02-09T15:51:56.464Z,22.54
2023-02-09T15:54:00.468Z,22.63
2023-02-09T15:56:04.662Z,22.58
2023-02-09T15:58:06.504Z,22.78
2023-02-09T16:00:07.817Z,22.66
2023-02-09T16:02:09.190Z,22.63
2023-02-09T16:04:14.735Z,22.45
2023-02-09T16:06:16.428Z,22.46
2023-02-09T16:08:23.557Z,22.47
2023-02-09T16:10:24.953Z,22.46
2023-02-09T16:12:26.304Z,22.49
2023-02-09T16:14:27.745Z,23.07
2023-02-09T16:16:29.139Z,23.07
2023-02-09T16:18:30.475Z,22.69
2023-02-09T16:20:31.806Z,22.71
2023-02-09T16:22:33.115Z,22.59
2023-02-09T16:24:34.450Z,21.95
2023-02-09T16:26:35.859Z,21.63
2023-02-09T16:28:37.174Z,21.45
2023-02-09T16:30:39.069Z,21.37
2023-02-09T16:32:40.389Z,21.31
2023-02-09T16:34:41.687Z,21.27
2023-02-09T16:36:43.044Z,21.25
2023-02-09T16:38:44.398Z,21.25
2023-02-09T16:40:49.542Z,21.24
2023-02-09T16:42:50.863Z,21.25
2023-02-09T16:44:52.714Z,21.43
2023-02-09T16:46:54.108Z,21.75
2023-02-09T16:48:58.240Z,21.63
2023-02-09T16:50:59.548Z,21.61
2023-02-09T16:53:07.020Z,21.66
2023-02-09T16:55:11.280Z,21.72
2023-02-09T16:57:13.015Z,21.91
2023-02-09T16:59:14.320Z,22.25
2023-02-09T17:01:16.871Z,22.54
2023-02-09T17:03:19.855Z,22.46
2023-02-09T17:05:21.311Z,22.48
2023-02-09T17:07:22.712Z,22.53
2023-02-09T17:09:24.019Z,22.55
2023-02-09T17:11:25.577Z,22.60
2023-02-09T17:13:26.900Z,22.92
2023-02-09T17:15:31.085Z,23.06
2023-02-09T17:17:32.916Z,22.79
2023-02-09T17:19:46.079Z,22.64
2023-02-09T17:21:49.116Z,22.51
2023-02-09T17:23:50.508Z,22.86
2023-02-09T17:25:54.957Z,22.68
2023-02-09T17:27:56.308Z,22.52
2023-02-09T17:29:59.988Z,22.41
2023-02-09T17:32:02.254Z,22.38
2023-02-09T17:34:03.606Z,22.99
2023-02-09T17:38:27.604Z,22.09
2023-02-09T17:40:29.068Z,21.83
2023-02-09T17:42:30.363Z,21.67
2023-02-09T17:44:45.505Z,21.54
2023-02-09T17:46:47.161Z,21.85
2023-02-09T17:48:48.484Z,22.06
2023-02-09T17:50:50.073Z,22.23
2023-02-09T17:52:51.369Z,22.23
2023-02-09T17:54:54.019Z,22.17
2023-02-09T17:56:55.316Z,22.19
2023-02-09T17:58:57.378Z,22.30
2023-02-09T18:00:58.783Z,22.23
2023-02-09T18:03:00.192Z,22.20
2023-02-09T18:05:01.511Z,22.20
2023-02-09T18:07:02.873Z,22.22
2023-02-09T18:09:04.180Z,22.24
2023-02-09T18:11:05.473Z,22.26
2023-02-09T18:13:09.776Z,22.33
2023-02-09T18:15:11.071Z,22.73
2023-02-09T18:17:12.390Z,22.61
2023-02-09T18:19:13.733Z,22.15
2023-02-09T18:21:15.048Z,21.87
2023-02-09T18:23:16.406Z,21.67
2023-02-09T18:25:20.866Z,21.55
2023-02-09T18:27:23.070Z,21.43
2023-02-09T18:29:29.048Z,21.35
2023-02-09T18:31:30.487Z,21.29
2023-02-09T18:33:34.841Z,21.25
2023-02-09T18:35:36.211Z,21.22
2023-02-09T18:37:37.547Z,21.47
2023-02-09T18:39:45.956Z,21.40
2023-02-09T18:41:56.456Z,21.42
2023-02-09T18:43:57.769Z,21.58
2023-02-09T18:46:01.083Z,21.78
2023-02-09T18:48:02.547Z,21.98
2023-02-09T18:50:03.840Z,22.25
2023-02-09T18:52:06.037Z,22.36
2023-02-09T18:54:10.243Z,22.42
2023-02-09T18:56:18.021Z,22.50
2023-02-09T18:58:19.330Z,22.63
2023-02-09T19:00:20.722Z,22.64
2023-02-09T19:02:23.456Z,22.71
2023-02-09T19:04:27.825Z,22.66
2023-02-09T19:06:35.401Z,22.60
2023-02-09T19:08:36.719Z,22.56
2023-02-09T19:10:38.017Z,22.54
2023-02-09T19:12:39.686Z,22.65
2023-02-09T19:14:44.038Z,22.60
2023-02-09T19:16:45.532Z,22.60
2023-02-09T19:18:49.786Z,22.61
2023-02-09T19:20:51.263Z,22.58
2023-02-09T19:22:52.561Z,22.67
2023-02-09T19:24:53.857Z,22.72
2023-02-09T19:26:58.660Z,22.67
2023-02-09T19:28:59.993Z,22.62
2023-02-09T19:31:02.278Z,22.49
2023-02-09T19:33:03.641Z,22.07
2023-02-09T19:35:04.947Z,21.84
2023-02-09T19:37:06.241Z,22.19
2023-02-09T19:39:07.576Z,22.47
2023-02-09T19:41:13.523Z,22.60
2023-02-09T19:43:14.813Z,22.59
2023-02-09T19:45:16.105Z,22.64
2023-02-09T19:47:20.370Z,22.63
2023-02-09T19:49:27.495Z,22.76
2023-02-09T19:51:28.870Z,22.75
2023-02-09T19:53:30.171Z,22.66
2023-02-09T19:55:31.468Z,22.69
2023-02-09T19:57:32.822Z,22.60
2023-02-09T19:59:34.386Z,22.67
2023-02-09T20:01:35.843Z,22.67
2023-02-09T20:03:40.046Z,22.68
2023-02-09T20:05:41.490Z,22.64
2023-02-09T20:07:42.835Z,22.66
2023-02-09T20:09:44.176Z,22.66
2023-02-09T20:11:45.508Z,22.54
2023-02-09T20:13:46.901Z,22.17
2023-02-09T20:15:48.577Z,22.33
2023-02-09T20:17:50.149Z,22.61
2023-02-09T20:19:51.520Z,22.90
2023-02-09T20:21:53.019Z,22.91
2023-02-09T20:23:54.380Z,22.86
2023-02-09T20:25:55.731Z,22.86
2023-02-09T20:27:57.115Z,22.83
2023-02-09T20:30:01.379Z,22.74
2023-02-09T20:32:05.715Z,22.65
2023-02-09T20:34:07.049Z,22.68
2023-02-09T20:36:08.376Z,22.63
2023-02-09T20:38:09.680Z,22.71
2023-02-09T20:40:11.466Z,22.73
2023-02-09T20:42:31.415Z,22.69
2023-02-09T20:44:54.645Z,22.19
2023-02-09T20:46:56.027Z,21.91
2023-02-09T20:48:57.324Z,21.80
2023-02-09T20:50:58.631Z,21.76
2023-02-09T20:53:01.492Z,21.74
2023-02-09T20:55:02.821Z,21.72
2023-02-09T20:57:06.806Z,21.69
2023-02-09T20:59:08.122Z,21.62
2023-02-09T21:01:10.007Z,21.88
2023-02-09T21:03:11.693Z,22.12
2023-02-09T21:05:12.991Z,22.18
2023-02-09T21:07:20.021Z,22.21
2023-02-09T21:09:26.188Z,22.25
2023-02-09T21:11:27.620Z,22.29
2023-02-09T21:13:28.947Z,22.33
2023-02-09T21:15:33.127Z,22.34
2023-02-09T21:17:34.427Z,22.37
2023-02-09T21:19:35.782Z,22.39
2023-02-09T21:21:38.613Z,22.40
2023-02-09T21:23:42.234Z,22.41
2023-02-09T21:25:46.409Z,22.41
2023-02-09T21:27:47.810Z,22.64
2023-02-09T21:29:49.261Z,22.52
2023-02-09T21:31:52.052Z,22.70
2023-02-09T21:33:53.496Z,22.98
2023-02-09T21:35:54.831Z,22.49
2023-02-09T21:37:56.179Z,21.14
2023-02-09T21:40:02.274Z,19.45
2023-02-09T21:42:22.404Z,20.45
2023-02-09T21:44:26.588Z,21.16
2023-02-09T21:46:27.897Z,21.39
2023-02-09T21:48:29.231Z,21.45
2023-02-09T21:50:30.527Z,21.49
2023-02-09T21:52:34.389Z,21.49
2023-02-09T21:54:35.717Z,21.50
2023-02-09T21:56:37.061Z,21.51
2023-02-09T21:58:47.720Z,21.55
2023-02-09T22:00:49.293Z,21.59
2023-02-09T22:02:50.840Z,21.63
2023-02-09T22:04:52.653Z,21.68
2023-02-09T22:06:54.109Z,21.70
2023-02-09T22:08:55.420Z,21.72
2023-02-09T22:10:56.713Z,21.74
2023-02-09T22:12:58.096Z,21.78
2023-02-09T22:14:59.423Z,21.80
2023-02-09T22:17:00.754Z,21.79
2023-02-09T22:19:02.140Z,21.77
2023-02-09T22:21:03.441Z,21.76
2023-02-09T22:23:04.743Z,21.76
2023-02-09T22:25:06.075Z,21.72
2023-02-09T22:27:07.374Z,21.71
2023-02-09T22:29:08.677Z,21.67
2023-02-09T22:31:10.084Z,21.62
2023-02-09T22:33:11.439Z,21.55
2023-02-09T22:35:12.777Z,21.51
2023-02-09T22:37:14.075Z,21.50
2023-02-09T22:39:15.376Z,21.46
2023-02-09T22:41:22.842Z,21.42
2023-02-09T22:43:24.201Z,21.41
2023-02-09T22:45:25.487Z,21.39
2023-02-09T22:47:26.797Z,21.33
2023-02-09T22:49:28.218Z,21.30
2023-02-09T22:51:29.528Z,21.32
2023-02-09T22:53:30.831Z,21.30
2023-02-09T22:55:32.181Z,21.29
2023-02-09T22:57:33.541Z,21.25
2023-02-09T22:59:36.305Z,21.24
2023-02-09T23:01:37.627Z,21.22
2023-02-09T23:03:39.041Z,21.22
2023-02-09T23:05:40.516Z,21.21
2023-02-09T23:07:42.975Z,21.21
2023-02-09T23:09:44.274Z,21.22
2023-02-09T23:11:45.615Z,21.22
2023-02-09T23:13:48.029Z,21.24
2023-02-09T23:15:50.871Z,21.28
2023-02-09T23:17:52.281Z,21.32
2023-02-09T23:19:53.666Z,21.41
2023-02-09T23:21:54.964Z,21.49
2023-02-09T23:23:56.256Z,21.53
2023-02-09T23:25:57.594Z,21.57
2023-02-09T23:27:58.940Z,21.59
2023-02-09T23:30:00.267Z,21.61
2023-02-09T23:32:02.186Z,21.63
2023-02-09T23:34:03.478Z,21.65
2023-02-09T23:36:04.908Z,21.63
2023-02-09T23:38:06.243Z,21.64
2023-02-09T23:40:07.994Z,21.64
2023-02-09T23:42:09.333Z,21.61
2023-02-09T23:44:10.739Z,21.58
2023-02-09T23:46:12.110Z,21.54
2023-02-09T23:48:13.410Z,21.54
2023-02-09T23:50:14.978Z,21.54
2023-02-09T23:52:16.308Z,21.53
2023-02-09T23:54:17.610Z,21.50
2023-02-09T23:56:18.907Z,21.43
2023-02-09T23:58:20.264Z,21.40
